createdAt,value
2023-02-20T00:00:52.184Z,5.45
2023-02-20T00:03:18.637Z,5.49
2023-02-20T00:05:45.028Z,5.51
2023-02-20T00:08:11.420Z,5.54
2023-02-20T00:10:37.814Z,5.57
2023-02-20T00:13:04.176Z,5.57
2023-02-20T00:15:30.583Z,5.57
2023-02-20T00:17:57.092Z,5.60
2023-02-20T00:20:24.476Z,5.61
2023-02-20T00:22:51.095Z,5.64
2023-02-20T00:25:18.723Z,5.67
2023-02-20T00:27:45.182Z,5.68
2023-02-20T00:30:16.495Z,5.70
2023-02-20T00:32:42.922Z,5.74
2023-02-20T00:35:11.059Z,5.76
2023-02-20T00:37:38.554Z,5.79
2023-02-20T00:40:05.824Z,5.79
2023-02-20T00:42:32.218Z,5.81
2023-02-20T00:44:58.749Z,5.81
2023-02-20T00:47:25.149Z,5.82
2023-02-20T00:49:51.661Z,5.83
2023-02-20T00:52:18.227Z,5.83
2023-02-20T00:54:44.566Z,5.84
2023-02-20T00:57:10.986Z,5.85
2023-02-20T00:59:37.339Z,5.86
2023-02-20T01:02:04.046Z,5.86
2023-02-20T01:04:30.461Z,5.88
2023-02-20T01:06:57.025Z,5.89
2023-02-20T01:09:23.378Z,5.89
2023-02-20T01:11:49.846Z,5.88
2023-02-20T01:14:16.210Z,5.88
2023-02-20T01:16:51.431Z,5.90
2023-02-20T01:19:18.980Z,5.91
2023-02-20T01:21:45.589Z,5.94
2023-02-20T01:24:12.684Z,5.96
2023-02-20T01:26:39.048Z,5.98
2023-02-20T01:29:05.630Z,5.99
2023-02-20T01:31:32.065Z,6.02
2023-02-20T01:33:58.670Z,6.04
2023-02-20T01:36:25.893Z,6.01
2023-02-20T01:38:52.449Z,6.02
2023-02-20T01:41:20.039Z,6.00
2023-02-20T01:43:46.617Z,6.01
2023-02-20T01:46:28.288Z,6.03
2023-02-20T01:49:01.029Z,6.03
2023-02-20T01:51:27.388Z,6.03
2023-02-20T01:53:53.915Z,6.02
2023-02-20T01:56:20.310Z,6.04
2023-02-20T01:58:47.431Z,6.06
2023-02-20T02:01:13.783Z,6.06
2023-02-20T02:03:41.941Z,6.07
2023-02-20T02:06:09.695Z,6.07
2023-02-20T02:08:36.626Z,6.10
2023-02-20T02:11:07.299Z,6.14
2023-02-20T02:13:34.356Z,6.15
2023-02-20T02:16:24.061Z,6.16
2023-02-20T02:19:08.866Z,6.14
2023-02-20T02:21:35.958Z,6.13
2023-02-20T02:24:15.883Z,6.13
2023-02-20T02:26:47.465Z,6.10
2023-02-20T02:29:34.527Z,6.08
2023-02-20T02:32:38.522Z,6.08
2023-02-20T02:35:31.315Z,6.09
2023-02-20T02:38:25.748Z,6.10
2023-02-20T02:41:01.942Z,6.05
2023-02-20T02:43:37.307Z,6.04
2023-02-20T02:46:15.216Z,6.05
2023-02-20T02:48:51.809Z,6.05
2023-02-20T02:51:24.702Z,6.03
2023-02-20T02:54:10.519Z,6.03
2023-02-20T02:56:38.101Z,6.02
2023-02-20T02:59:04.836Z,6.02
2023-02-20T03:01:31.397Z,6.03
2023-02-20T03:03:57.754Z,6.02
2023-02-20T03:06:35.296Z,6.02
2023-02-20T03:09:11.052Z,6.03
2023-02-20T03:11:37.465Z,6.05
2023-02-20T03:14:28.597Z,6.08
2023-02-20T03:17:02.664Z,6.03
2023-02-20T03:19:49.239Z,6.01
2023-02-20T03:22:37.064Z,6.02
2023-02-20T03:25:08.726Z,6.03
2023-02-20T03:27:42.757Z,6.02
2023-02-20T03:30:22.950Z,6.02
2023-02-20T03:33:09.691Z,6.00
2023-02-20T03:35:54.603Z,5.99
2023-02-20T03:38:40.273Z,6.00
2023-02-20T03:41:24.902Z,6.01
2023-02-20T03:43:51.271Z,6.00
2023-02-20T03:46:20.932Z,6.00
2023-02-20T03:48:59.514Z,6.01
2023-02-20T03:51:25.855Z,6.01
2023-02-20T03:53:52.444Z,6.04
2023-02-20T03:56:40.663Z,6.04
2023-02-20T03:59:18.451Z,6.04
2023-02-20T04:01:45.541Z,6.04
2023-02-20T04:04:18.230Z,6.05
2023-02-20T04:06:44.703Z,6.08
2023-02-20T04:09:12.966Z,6.10
2023-02-20T04:11:41.452Z,6.11
2023-02-20T04:14:07.855Z,6.14
2023-02-20T04:16:36.598Z,6.14
2023-02-20T04:19:04.730Z,6.17
2023-02-20T04:21:44.936Z,6.22
2023-02-20T04:24:13.508Z,6.22
2023-02-20T04:26:39.856Z,6.26
2023-02-20T04:29:06.340Z,6.29
2023-02-20T04:31:33.050Z,6.31
2023-02-20T04:33:59.406Z,6.35
2023-02-20T04:36:25.841Z,6.38
2023-02-20T04:38:52.281Z,6.37
2023-02-20T04:41:18.632Z,6.40
2023-02-20T04:43:45.022Z,6.42
2023-02-20T04:46:12.148Z,6.40
2023-02-20T04:48:38.718Z,6.39
2023-02-20T04:51:05.451Z,6.36
2023-02-20T04:53:31.853Z,6.39
2023-02-20T04:55:58.232Z,6.39
2023-02-20T04:58:24.626Z,6.37
2023-02-20T05:00:51.013Z,6.46
2023-02-20T05:03:17.437Z,6.48
2023-02-20T05:05:43.790Z,6.49
2023-02-20T05:08:10.403Z,6.48
2023-02-20T05:10:36.963Z,6.47
2023-02-20T05:13:03.510Z,6.46
2023-02-20T05:15:30.659Z,6.41
2023-02-20T05:17:57.185Z,6.39
2023-02-20T05:20:46.478Z,6.38
2023-02-20T05:23:13.072Z,6.35
2023-02-20T05:25:39.428Z,6.29
2023-02-20T05:28:06.904Z,6.29
2023-02-20T05:30:33.286Z,6.28
2023-02-20T05:32:59.874Z,6.28
2023-02-20T05:35:26.376Z,6.24
2023-02-20T05:37:52.776Z,6.24
2023-02-20T05:40:19.142Z,6.24
2023-02-20T05:42:45.625Z,6.25
2023-02-20T05:45:11.985Z,6.25
2023-02-20T05:47:38.589Z,6.24
2023-02-20T05:50:05.467Z,6.28
2023-02-20T05:52:31.827Z,6.30
2023-02-20T05:54:58.172Z,6.36
2023-02-20T05:57:24.538Z,6.40
2023-02-20T05:59:53.879Z,6.41
2023-02-20T06:02:20.337Z,6.43
2023-02-20T06:04:46.819Z,6.47
2023-02-20T06:07:13.254Z,6.50
2023-02-20T06:09:43.758Z,6.51
2023-02-20T06:12:10.652Z,6.54
2023-02-20T06:14:37.105Z,6.58
2023-02-20T06:17:03.498Z,6.58
2023-02-20T06:19:30.035Z,6.64
2023-02-20T06:21:58.748Z,6.63
2023-02-20T06:24:25.185Z,6.63
2023-02-20T06:26:52.267Z,6.63
2023-02-20T06:29:18.831Z,6.66
2023-02-20T06:31:45.342Z,6.67
2023-02-20T06:34:11.927Z,6.68
2023-02-20T06:36:39.398Z,6.67
2023-02-20T06:39:06.520Z,6.67
2023-02-20T06:41:33.075Z,6.70
2023-02-20T06:43:59.449Z,6.71
2023-02-20T06:46:25.856Z,6.77
2023-02-20T06:48:54.170Z,6.83
2023-02-20T06:51:21.842Z,6.87
2023-02-20T06:53:49.796Z,6.92
2023-02-20T06:56:18.650Z,7.00
2023-02-20T06:58:48.726Z,7.04
2023-02-20T07:01:16.219Z,7.06
2023-02-20T07:03:42.812Z,7.12
2023-02-20T07:06:09.229Z,7.13
2023-02-20T07:08:35.612Z,7.22
2023-02-20T07:11:02.143Z,7.25
2023-02-20T07:13:28.519Z,7.30
2023-02-20T07:15:54.906Z,7.30
2023-02-20T07:18:23.868Z,7.38
2023-02-20T07:20:52.601Z,7.43
2023-02-20T07:23:20.078Z,7.47
2023-02-20T07:25:47.934Z,7.48
2023-02-20T07:28:14.644Z,7.52
2023-02-20T07:30:41.136Z,7.59
2023-02-20T07:33:07.651Z,7.62
2023-02-20T07:35:34.020Z,7.62
2023-02-20T07:38:00.368Z,7.60
2023-02-20T07:40:26.788Z,7.62
2023-02-20T07:42:53.128Z,7.65
2023-02-20T07:45:19.604Z,7.66
2023-02-20T07:47:46.072Z,7.71
2023-02-20T07:50:16.441Z,7.74
2023-02-20T07:52:43.221Z,7.81
2023-02-20T07:55:09.824Z,7.85
2023-02-20T07:57:36.477Z,7.90
2023-02-20T08:00:04.135Z,7.91
2023-02-20T08:02:30.654Z,7.95
2023-02-20T08:04:57.012Z,7.94
2023-02-20T08:07:23.362Z,7.98
2023-02-20T08:09:49.739Z,7.98
2023-02-20T08:12:17.274Z,7.96
2023-02-20T08:14:43.693Z,7.96
2023-02-20T08:17:12.092Z,7.98
2023-02-20T08:19:38.425Z,7.98
2023-02-20T08:22:04.852Z,8.01
2023-02-20T08:24:31.269Z,8.01
2023-02-20T08:26:58.463Z,8.02
2023-02-20T08:29:25.653Z,8.07
2023-02-20T08:31:52.295Z,8.08
2023-02-20T08:34:18.729Z,8.11
2023-02-20T08:36:45.078Z,8.13
2023-02-20T08:39:11.591Z,8.14
2023-02-20T08:41:44.769Z,8.15
2023-02-20T08:44:11.494Z,8.16
2023-02-20T08:46:37.922Z,8.20
2023-02-20T08:49:04.260Z,8.22
2023-02-20T08:51:30.606Z,8.26
2023-02-20T08:53:57.147Z,8.29
2023-02-20T08:56:23.606Z,8.34
2023-02-20T08:58:49.952Z,8.42
2023-02-20T09:01:16.457Z,8.45
2023-02-20T09:03:43.683Z,8.49
2023-02-20T09:06:10.177Z,8.51
2023-02-20T09:08:36.688Z,8.54
2023-02-20T09:11:03.300Z,8.55
2023-02-20T09:13:29.831Z,8.60
2023-02-20T09:15:56.393Z,8.62
2023-02-20T09:18:22.756Z,8.70
2023-02-20T09:20:49.296Z,8.71
2023-02-20T09:23:15.992Z,8.82
2023-02-20T09:25:42.326Z,8.87
2023-02-20T09:28:08.886Z,8.94
2023-02-20T09:30:35.507Z,8.99
2023-02-20T09:33:01.937Z,8.98
2023-02-20T09:35:29.817Z,9.02
2023-02-20T09:37:56.524Z,9.02
2023-02-20T09:40:24.862Z,8.97
2023-02-20T09:42:51.285Z,8.98
2023-02-20T09:45:23.695Z,8.89
2023-02-20T09:47:59.251Z,8.81
2023-02-20T09:50:42.090Z,8.80
2023-02-20T09:53:21.025Z,8.74
2023-02-20T09:55:47.589Z,8.74
2023-02-20T09:58:42.563Z,8.67
2023-02-20T10:01:09.132Z,8.69
2023-02-20T10:03:40.270Z,8.64
2023-02-20T10:06:17.421Z,8.61
2023-02-20T10:08:43.857Z,8.61
2023-02-20T10:11:11.510Z,8.62
2023-02-20T10:13:50.455Z,8.58
2023-02-20T10:16:25.327Z,8.55
2023-02-20T10:19:10.922Z,8.58
2023-02-20T10:22:03.615Z,8.58
2023-02-20T10:24:50.493Z,8.59
2023-02-20T10:27:23.212Z,8.59
2023-02-20T10:29:49.558Z,8.59
2023-02-20T10:32:22.130Z,8.55
2023-02-20T10:34:58.526Z,8.57
2023-02-20T10:37:33.470Z,8.58
2023-02-20T10:40:17.925Z,8.57
2023-02-20T10:42:48.928Z,8.60
2023-02-20T10:45:21.152Z,8.58
2023-02-20T10:47:54.493Z,8.61
2023-02-20T10:50:29.478Z,8.56
2023-02-20T10:52:59.608Z,8.57
2023-02-20T10:55:35.031Z,8.56
2023-02-20T10:58:08.919Z,8.54
2023-02-20T11:00:44.737Z,8.52
2023-02-20T11:03:20.189Z,8.52
2023-02-20T11:05:49.895Z,8.49
2023-02-20T11:08:20.777Z,8.47
2023-02-20T11:10:53.770Z,8.46
2023-02-20T11:13:22.245Z,8.47
2023-02-20T11:15:49.520Z,8.49
2023-02-20T11:18:36.366Z,8.46
2023-02-20T11:21:02.746Z,8.43
2023-02-20T11:23:44.799Z,8.38
2023-02-20T11:26:20.339Z,8.40
2023-02-20T11:28:55.246Z,8.40
2023-02-20T11:31:21.818Z,8.43
2023-02-20T11:33:50.190Z,8.42
2023-02-20T11:36:38.190Z,8.39
2023-02-20T11:39:15.573Z,8.42
2023-02-20T11:41:42.053Z,8.43
2023-02-20T11:44:13.065Z,8.41
2023-02-20T11:46:39.444Z,8.42
2023-02-20T11:49:07.428Z,8.41
2023-02-20T11:51:40.724Z,8.42
2023-02-20T11:54:17.612Z,8.42
2023-02-20T11:56:54.320Z,8.44
2023-02-20T11:59:28.865Z,8.44
2023-02-20T12:02:00.896Z,8.42
2023-02-20T12:04:27.700Z,8.41
2023-02-20T12:06:54.300Z,8.39
2023-02-20T12:09:22.825Z,8.42
2023-02-20T12:11:50.584Z,8.44
2023-02-20T12:14:17.029Z,8.38
2023-02-20T12:16:49.354Z,8.36
2023-02-20T12:19:34.591Z,8.36
2023-02-20T12:22:19.715Z,8.35
2023-02-20T12:25:01.405Z,8.41
2023-02-20T12:27:46.625Z,8.36
2023-02-20T12:30:25.248Z,8.33
2023-02-20T12:33:09.018Z,8.26
2023-02-20T12:35:39.599Z,8.24
2023-02-20T12:38:28.224Z,8.24
2023-02-20T12:41:24.011Z,8.22
2023-02-20T12:44:35.554Z,8.20
2023-02-20T12:47:14.979Z,8.24
2023-02-20T12:49:54.318Z,8.21
2023-02-20T12:52:26.394Z,8.21
2023-02-20T12:54:57.337Z,8.20
2023-02-20T12:57:26.528Z,8.19
2023-02-20T13:00:15.542Z,8.12
2023-02-20T13:02:52.905Z,8.14
2023-02-20T13:05:20.775Z,8.14
2023-02-20T13:07:54.955Z,8.08
2023-02-20T13:10:26.125Z,8.09
2023-02-20T13:12:52.758Z,8.09
2023-02-20T13:15:31.380Z,8.02
2023-02-20T13:18:32.271Z,7.93
2023-02-20T13:21:05.587Z,7.86
2023-02-20T13:23:35.875Z,7.87
2023-02-20T13:26:02.678Z,7.81
2023-02-20T13:28:37.494Z,7.82
2023-02-20T13:31:12.928Z,7.81
2023-02-20T13:33:40.844Z,7.77
2023-02-20T13:36:35.458Z,7.77
2023-02-20T13:39:17.346Z,7.76
2023-02-20T13:41:55.909Z,7.77
2023-02-20T13:44:31.292Z,7.81
2023-02-20T13:47:28.451Z,7.83
2023-02-20T13:50:01.687Z,7.86
2023-02-20T13:52:43.492Z,7.87
2023-02-20T13:55:10.184Z,7.87
2023-02-20T13:57:50.010Z,7.88
2023-02-20T14:00:21.664Z,7.91
2023-02-20T14:02:48.051Z,7.95
2023-02-20T14:05:20.031Z,7.97
2023-02-20T14:07:46.615Z,7.99
2023-02-20T14:10:37.682Z,8.01
2023-02-20T14:13:34.133Z,8.00
2023-02-20T14:16:06.061Z,8.00
2023-02-20T14:18:34.230Z,8.02
2023-02-20T14:21:09.686Z,8.02
2023-02-20T14:23:36.167Z,8.04
2023-02-20T14:26:17.574Z,8.04
2023-02-20T14:28:45.545Z,8.07
2023-02-20T14:31:23.245Z,8.07
2023-02-20T14:33:58.528Z,8.05
2023-02-20T14:36:42.924Z,8.04
2023-02-20T14:39:09.275Z,8.05
2023-02-20T14:41:35.720Z,8.04
2023-02-20T14:44:03.700Z,8.04
2023-02-20T14:46:32.249Z,8.02
2023-02-20T14:49:10.103Z,8.03
2023-02-20T14:51:36.555Z,8.00
2023-02-20T14:54:20.865Z,7.96
2023-02-20T14:56:47.541Z,7.96
2023-02-20T14:59:27.100Z,7.99
2023-02-20T15:02:04.417Z,7.99
2023-02-20T15:04:30.838Z,8.00
2023-02-20T15:07:04.727Z,8.03
2023-02-20T15:09:42.257Z,8.03
2023-02-20T15:12:27.448Z,8.03
2023-02-20T15:14:59.971Z,8.01
2023-02-20T15:17:28.348Z,8.05
2023-02-20T15:19:54.942Z,8.05
2023-02-20T15:22:27.494Z,8.04
2023-02-20T15:24:54.028Z,8.03
2023-02-20T15:27:24.186Z,8.05
2023-02-20T15:30:16.407Z,8.05
2023-02-20T15:32:43.458Z,8.07
2023-02-20T15:35:14.201Z,8.08
2023-02-20T15:37:49.054Z,8.12
2023-02-20T15:40:23.658Z,8.13
2023-02-20T15:42:56.710Z,8.14
2023-02-20T15:45:24.824Z,8.14
2023-02-20T15:47:51.232Z,8.14
2023-02-20T15:50:17.812Z,8.16
2023-02-20T15:52:44.764Z,8.14
2023-02-20T15:55:17.674Z,8.08
2023-02-20T15:57:45.287Z,8.11
2023-02-20T16:00:19.162Z,8.12
2023-02-20T16:02:45.789Z,8.12
2023-02-20T16:05:12.294Z,8.10
2023-02-20T16:07:38.687Z,8.08
2023-02-20T16:10:05.493Z,8.06
2023-02-20T16:12:33.363Z,8.04
2023-02-20T16:15:00.194Z,8.00
2023-02-20T16:17:30.363Z,8.01
2023-02-20T16:19:56.758Z,7.98
2023-02-20T16:22:23.164Z,7.97
2023-02-20T16:24:49.517Z,7.99
2023-02-20T16:27:23.920Z,7.97
2023-02-20T16:29:51.048Z,7.99
2023-02-20T16:32:27.452Z,7.98
2023-02-20T16:34:55.352Z,8.00
2023-02-20T16:37:21.853Z,8.03
2023-02-20T16:39:48.320Z,8.02
2023-02-20T16:42:29.119Z,8.01
2023-02-20T16:44:55.604Z,8.02
2023-02-20T16:47:24.250Z,8.00
2023-02-20T16:49:51.150Z,7.99
2023-02-20T16:52:25.266Z,8.01
2023-02-20T16:54:52.242Z,7.99
2023-02-20T16:57:18.829Z,7.98
2023-02-20T16:59:45.354Z,7.95
2023-02-20T17:02:19.479Z,7.94
2023-02-20T17:04:46.119Z,7.94
2023-02-20T17:07:12.584Z,7.90
2023-02-20T17:09:44.288Z,7.90
2023-02-20T17:12:11.242Z,7.85
2023-02-20T17:14:37.647Z,7.87
2023-02-20T17:17:04.650Z,7.87
2023-02-20T17:19:32.833Z,7.85
2023-02-20T17:21:59.811Z,7.85
2023-02-20T17:24:27.963Z,7.86
2023-02-20T17:26:54.711Z,7.85
2023-02-20T17:29:21.136Z,7.84
2023-02-20T17:31:47.560Z,7.83
2023-02-20T17:34:14.120Z,7.82
2023-02-20T17:36:48.067Z,7.83
2023-02-20T17:39:21.783Z,7.81
2023-02-20T17:41:49.116Z,7.81
2023-02-20T17:44:16.613Z,7.78
2023-02-20T17:46:43.012Z,7.79
2023-02-20T17:49:09.504Z,7.76
2023-02-20T17:51:35.865Z,7.77
2023-02-20T17:54:03.184Z,7.76
2023-02-20T17:56:29.638Z,7.76
2023-02-20T17:58:56.004Z,7.77
2023-02-20T18:01:27.173Z,7.75
2023-02-20T18:03:56.453Z,7.76
2023-02-20T18:06:22.855Z,7.79
2023-02-20T18:08:50.464Z,7.81
2023-02-20T18:11:17.559Z,7.81
2023-02-20T18:13:44.053Z,7.83
2023-02-20T18:16:10.533Z,7.85
2023-02-20T18:18:36.962Z,7.85
2023-02-20T18:21:03.435Z,7.85
2023-02-20T18:23:29.769Z,7.88
2023-02-20T18:25:56.224Z,7.89
2023-02-20T18:28:22.665Z,7.93
2023-02-20T18:30:49.064Z,7.95
2023-02-20T18:33:15.534Z,7.96
2023-02-20T18:35:41.908Z,7.98
2023-02-20T18:38:09.870Z,8.01
2023-02-20T18:40:36.388Z,8.05
2023-02-20T18:43:02.752Z,8.05
2023-02-20T18:45:29.295Z,8.05
2023-02-20T18:47:55.853Z,8.03
2023-02-20T18:50:22.272Z,8.06
2023-02-20T18:52:48.805Z,8.04
2023-02-20T18:55:18.180Z,8.01
2023-02-20T18:57:46.568Z,8.00
2023-02-20T19:00:16.297Z,7.97
2023-02-20T19:02:42.741Z,7.95
2023-02-20T19:05:09.193Z,7.91
2023-02-20T19:07:35.738Z,7.88
2023-02-20T19:10:02.808Z,7.87
2023-02-20T19:12:29.155Z,7.88
2023-02-20T19:14:55.510Z,7.85
2023-02-20T19:17:22.110Z,7.82
2023-02-20T19:19:48.488Z,7.83
2023-02-20T19:22:14.900Z,7.81
2023-02-20T19:24:42.957Z,7.83
2023-02-20T19:27:11.046Z,7.81
2023-02-20T19:29:39.474Z,7.82
2023-02-20T19:32:08.226Z,7.81
2023-02-20T19:34:34.663Z,7.80
2023-02-20T19:37:02.483Z,7.81
2023-02-20T19:39:29.321Z,7.80
2023-02-20T19:41:55.695Z,7.79
2023-02-20T19:44:24.181Z,7.80
2023-02-20T19:46:52.351Z,7.79
2023-02-20T19:49:19.209Z,7.83
2023-02-20T19:51:47.003Z,7.85
2023-02-20T19:54:13.737Z,7.82
2023-02-20T19:56:45.124Z,7.85
2023-02-20T19:59:11.652Z,7.84
2023-02-20T20:01:38.032Z,7.86
2023-02-20T20:04:04.419Z,7.84
2023-02-20T20:06:30.779Z,7.84
2023-02-20T20:09:12.287Z,7.85
2023-02-20T20:11:40.032Z,7.86
2023-02-20T20:14:06.440Z,7.86
2023-02-20T20:16:35.166Z,7.85
2023-02-20T20:19:01.545Z,7.83
2023-02-20T20:21:27.909Z,7.85
2023-02-20T20:23:54.503Z,7.86
2023-02-20T20:26:25.533Z,7.86
2023-02-20T20:28:52.118Z,7.86
2023-02-20T20:31:19.775Z,7.86
2023-02-20T20:33:46.175Z,7.86
2023-02-20T20:36:12.742Z,7.85
2023-02-20T20:38:39.105Z,7.85
2023-02-20T20:41:05.538Z,7.85
2023-02-20T20:43:31.956Z,7.84
2023-02-20T20:45:58.620Z,7.85
2023-02-20T20:48:24.974Z,7.84
2023-02-20T20:50:51.561Z,7.84
2023-02-20T20:53:17.924Z,7.87
2023-02-20T20:55:44.347Z,7.85
2023-02-20T20:58:10.965Z,7.88
2023-02-20T21:00:37.392Z,7.88
2023-02-20T21:03:10.474Z,7.87
2023-02-20T21:05:37.070Z,7.89
2023-02-20T21:08:03.647Z,7.87
2023-02-20T21:10:30.062Z,7.89
2023-02-20T21:12:58.246Z,7.89
2023-02-20T21:15:25.434Z,7.89
2023-02-20T21:17:52.210Z,7.90
2023-02-20T21:20:21.369Z,7.91
2023-02-20T21:22:48.845Z,7.89
2023-02-20T21:25:15.332Z,7.88
2023-02-20T21:27:41.734Z,7.92
2023-02-20T21:30:09.221Z,7.92
2023-02-20T21:32:35.731Z,7.92
2023-02-20T21:35:02.132Z,7.92
2023-02-20T21:37:28.499Z,7.91
2023-02-20T21:39:54.867Z,7.91
2023-02-20T21:42:40.028Z,7.93
2023-02-20T21:45:06.633Z,7.93
2023-02-20T21:47:33.161Z,7.93
2023-02-20T21:49:59.665Z,7.96
2023-02-20T21:52:27.121Z,7.94
2023-02-20T21:54:54.490Z,7.94
2023-02-20T21:57:20.948Z,7.93
2023-02-20T21:59:47.264Z,7.92
2023-02-20T22:02:17.854Z,7.94
2023-02-20T22:04:44.409Z,7.94
2023-02-20T22:07:29.288Z,7.93
2023-02-20T22:10:14.351Z,7.93
2023-02-20T22:12:59.088Z,7.94
2023-02-20T22:15:44.187Z,7.95
2023-02-20T22:18:28.864Z,7.95
2023-02-20T22:21:14.284Z,7.94
2023-02-20T22:23:59.142Z,7.94
2023-02-20T22:26:44.065Z,7.93
2023-02-20T22:29:29.822Z,7.96
2023-02-20T22:32:14.841Z,7.96
2023-02-20T22:35:11.101Z,7.96
2023-02-20T22:37:56.736Z,7.97
2023-02-20T22:40:41.507Z,7.98
2023-02-20T22:43:26.422Z,7.99
2023-02-20T22:46:11.491Z,7.98
2023-02-20T22:48:56.579Z,8.01
2023-02-20T22:51:41.537Z,8.01
2023-02-20T22:54:26.257Z,8.02
2023-02-20T22:57:11.099Z,8.03
2023-02-20T22:59:55.996Z,8.03
2023-02-20T23:02:41.101Z,8.04
2023-02-20T23:05:26.447Z,8.04
2023-02-20T23:08:11.219Z,8.05
2023-02-20T23:10:56.086Z,8.07
2023-02-20T23:13:41.012Z,8.09
2023-02-20T23:16:26.281Z,8.11
2023-02-20T23:19:11.327Z,8.11
2023-02-20T23:21:56.473Z,8.11
2023-02-20T23:24:41.286Z,8.13
2023-02-20T23:27:26.135Z,8.14
2023-02-20T23:30:11.381Z,8.14
2023-02-20T23:32:58.616Z,8.16
2023-02-20T23:35:43.656Z,8.19
2023-02-20T23:38:28.556Z,8.21
2023-02-20T23:41:13.597Z,8.21
2023-02-20T23:43:58.711Z,8.23
2023-02-20T23:46:43.499Z,8.23
2023-02-20T23:49:28.300Z,8.23
2023-02-20T23:52:16.569Z,8.25
2023-02-20T23:55:02.369Z,8.25
2023-02-20T23:57:47.390Z,8.26
